Terminal Aerodrome Forecast
Issued by NWS

Home | Current Version | Previous Version | Graphics & Text | Print | Product List | Glossary On
Versions: 1 2 3 4 5 6 7 8 9 10 11 12 13 14 15 16 17 18
000
FTUS43 KIWX 262300 RRA
TAFSBN
TAF
KSBN 262346Z 2700/2724 28006KT P6SM OVC018
     FM270200 25005KT P6SM OVC022
     FM270800 22005KT 4SM BR BKN025
     FM271500 26008KT 6SM -SHRA VCTS SCT025CB BKN035
     FM272000 29010KT P6SM VCSH BKN035=

USA.gov is the U.S. government's official web portal to all federal, state and local government web resources and services.